Luquillo, Puerto Rico
Current Conditions -  °F | °C
As of 3:53 AM on Tuesday 21 Oct 2014 (Local Time) from TJNR Reporting Station
Clear Clear  
Wind Chill: 80°   Ceiling: Unl
Heat Index: 84°   Visibility: 10mi
Dew Point: 73°   Wind: 6mph
Humidity: 79%   Direction: 100°E
Pressure: 29.93"   Gusts: NA
Location:  18.38°N, 65.72°W
Report Text: TJNR 210753Z AUTO 10005KT 10SM CLR 27/23 A2993 RMK AO2 SLP134 T02670228
Loading
Personal Weather Stations






























Interactive Weather Map
Tropical Storm Tracking
New forecast layout! Learn more

10-Day Weather Forecast

Advertisements
Track Severe Weather on mobile